Time;durP1;ratioP1;P1;durP2;ratioP2;P2;SDS_P1;SDS_P2;PMS_P1;PMS_P2;Temp;Humidity;BMP_temperature;BMP_pressure;BME280_temperature;BME280_humidity;BME280_pressure;Samples;Min_cycle;Max_cycle;Signal;HPM_P1;HPM_P2
2021/08/09 00:01:03;;;;;;;1.88;1.40;;;;;;;;;;5039633;28;20064;-59
2021/08/09 00:03:29;;;;;;;4.20;1.63;;;;;;;;;;5039476;28;20028;-59
2021/08/09 00:05:54;;;;;;;2.50;1.45;;;;;;;;;;5043291;28;20476;-59
2021/08/09 00:08:19;;;;;;;3.97;1.33;;;;;;;;;;5039344;28;20040;-59
2021/08/09 00:10:45;;;;;;;4.20;1.27;;;;;;;;;;5041411;28;20025;-61
2021/08/09 00:13:10;;;;;;;3.35;1.50;;;;;;;;;;5042896;28;20111;-60
2021/08/09 00:15:36;;;;;;;3.70;1.90;;;;;;;;;;5045592;28;20502;-59
2021/08/09 00:18:01;;;;;;;5.25;1.90;;;;;;;;;;5037058;28;20116;-59
2021/08/09 00:20:27;;;;;;;4.20;1.30;;;;;;;;;;5043411;28;20033;-60
2021/08/09 00:22:52;;;;;;;2.78;1.63;;;;;;;;;;5039844;28;20033;-59
2021/08/09 00:25:17;;;;;;;4.35;1.70;;;;;;;;;;5042195;28;20042;-60
2021/08/09 00:27:43;;;;;;;2.75;1.25;;;;;;;;;;5038342;28;20033;-59
2021/08/09 00:30:10;;;;;;;2.30;1.50;;;;;;;;;;5040691;28;20024;-60
2021/08/09 00:32:36;;;;;;;3.65;1.42;;;;;;;;;;5034720;28;20132;-59
2021/08/09 00:35:01;;;;;;;5.43;1.70;;;;;;;;;;5041388;28;20111;-60
2021/08/09 00:37:27;;;;;;;1.70;1.20;;;;;;;;;;5038510;28;20103;-59
2021/08/09 00:39:52;;;;;;;2.90;1.50;;;;;;;;;;5037748;28;20025;-59
2021/08/09 00:42:18;;;;;;;2.53;1.13;;;;;;;;;;5035536;28;20060;-60
2021/08/09 00:44:43;;;;;;;4.60;1.30;;;;;;;;;;5038010;28;20041;-59
2021/08/09 00:47:09;;;;;;;3.72;1.30;;;;;;;;;;5037392;28;20024;-60
2021/08/09 00:49:34;;;;;;;3.10;1.30;;;;;;;;;;5035886;28;20032;-60
2021/08/09 00:52:00;;;;;;;2.97;1.55;;;;;;;;;;5036547;28;20079;-60
2021/08/09 00:54:26;;;;;;;3.50;1.50;;;;;;;;;;5043496;28;20025;-60
2021/08/09 00:56:52;;;;;;;2.33;1.38;;;;;;;;;;5042572;28;20130;-60
2021/08/09 00:59:17;;;;;;;3.97;1.30;;;;;;;;;;5038571;28;20033;-60
2021/08/09 01:01:43;;;;;;;2.95;1.30;;;;;;;;;;5042259;28;20434;-60
2021/08/09 01:04:10;;;;;;;3.00;1.27;;;;;;;;;;5041701;28;20028;-60
2021/08/09 01:06:36;;;;;;;2.33;1.25;;;;;;;;;;5041949;28;20090;-60
2021/08/09 01:09:10;;;;;;;4.55;1.60;;;;;;;;;;5040413;28;20527;-60
2021/08/09 01:11:41;;;;;;;4.45;1.55;;;;;;;;;;5045479;28;20162;-60
2021/08/09 01:14:39;;;;;;;5.97;1.58;;;;;;;;;;5046108;28;20021;-60
2021/08/09 01:17:07;;;;;;;6.15;1.40;;;;;;;;;;5031621;28;20048;-60
2021/08/09 01:19:38;;;;;;;2.58;1.40;;;;;;;;;;5034324;28;20108;-60
2021/08/09 01:22:51;;;;;;;1.83;1.30;;;;;;;;;;5038100;28;20038;-60
2021/08/09 01:25:35;;;;;;;2.58;1.10;;;;;;;;;;5027143;28;20045;-59
2021/08/09 01:28:03;;;;;;;1.63;1.38;;;;;;;;;;5044454;28;20041;-60
2021/08/09 01:30:29;;;;;;;3.63;1.35;;;;;;;;;;5038844;28;20025;-59
2021/08/09 01:32:55;;;;;;;3.42;1.42;;;;;;;;;;5033058;28;20021;-60
2021/08/09 01:35:24;;;;;;;2.75;1.45;;;;;;;;;;5035471;28;20033;-61
2021/08/09 01:37:53;;;;;;;4.18;1.30;;;;;;;;;;5036283;28;20024;-59
2021/08/09 01:40:20;;;;;;;5.53;1.75;;;;;;;;;;5035334;28;20029;-60
2021/08/09 01:42:46;;;;;;;2.38;1.58;;;;;;;;;;5043638;28;20519;-60
2021/08/09 01:45:14;;;;;;;5.80;1.70;;;;;;;;;;5045245;28;20222;-60
2021/08/09 01:47:41;;;;;;;4.30;1.30;;;;;;;;;;5046506;28;20132;-60
2021/08/09 01:50:08;;;;;;;1.95;1.20;;;;;;;;;;5041207;28;20025;-60
2021/08/09 01:52:34;;;;;;;2.35;1.40;;;;;;;;;;5046469;28;20032;-60
2021/08/09 01:55:00;;;;;;;5.57;1.50;;;;;;;;;;5048670;28;20029;-60
2021/08/09 01:57:27;;;;;;;3.63;1.60;;;;;;;;;;5040299;28;20045;-60
2021/08/09 01:59:52;;;;;;;2.22;1.25;;;;;;;;;;5039512;28;20028;-60
2021/08/09 02:02:32;;;;;;;4.60;1.60;;;;;;;;;;5040580;28;20032;-60
2021/08/09 02:05:11;;;;;;;2.35;1.38;;;;;;;;;;5045567;28;20219;-60
2021/08/09 02:07:40;;;;;;;4.15;1.20;;;;;;;;;;5040651;28;20376;-60
2021/08/09 02:10:08;;;;;;;3.00;1.48;;;;;;;;;;5037179;28;20029;-60
2021/08/09 02:13:05;;;;;;;3.53;1.63;;;;;;;;;;5042172;28;20114;-60
2021/08/09 02:15:39;;;;;;;2.47;1.70;;;;;;;;;;5035679;28;20021;-60
2021/08/09 02:18:15;;;;;;;4.95;1.50;;;;;;;;;;5040080;28;20032;-60
2021/08/09 02:20:44;;;;;;;2.67;1.60;;;;;;;;;;5039155;28;20032;-60
2021/08/09 02:23:14;;;;;;;2.30;1.40;;;;;;;;;;5044327;28;20517;-60
2021/08/09 02:25:44;;;;;;;3.78;2.30;;;;;;;;;;5045839;28;20834;-60
2021/08/09 02:28:19;;;;;;;1.70;1.00;;;;;;;;;;5043425;28;20037;-60
2021/08/09 02:30:50;;;;;;;2.95;1.40;;;;;;;;;;5041818;28;20029;-60
2021/08/09 02:33:17;;;;;;;3.13;1.27;;;;;;;;;;5040766;28;20192;-60
2021/08/09 02:35:43;;;;;;;2.13;1.52;;;;;;;;;;5040851;28;20163;-60
2021/08/09 02:38:10;;;;;;;2.28;1.63;;;;;;;;;;5041433;28;20498;-60
2021/08/09 02:40:36;;;;;;;7.18;1.80;;;;;;;;;;5040777;28;20117;-60
2021/08/09 02:43:02;;;;;;;2.38;1.30;;;;;;;;;;5039247;28;20029;-60
2021/08/09 02:45:28;;;;;;;2.88;1.48;;;;;;;;;;5036839;28;20551;-60
2021/08/09 02:47:54;;;;;;;5.10;1.60;;;;;;;;;;5039511;28;20091;-60
2021/08/09 02:50:20;;;;;;;5.43;2.00;;;;;;;;;;5043600;28;20899;-60
2021/08/09 02:52:46;;;;;;;3.10;1.73;;;;;;;;;;5046627;28;20395;-60
2021/08/09 02:55:14;;;;;;;3.38;1.77;;;;;;;;;;5046418;28;20119;-60
2021/08/09 02:57:40;;;;;;;2.60;1.73;;;;;;;;;;5041860;28;20033;-60
2021/08/09 03:00:06;;;;;;;2.45;1.30;;;;;;;;;;5045560;28;20676;-60
2021/08/09 03:02:36;;;;;;;3.08;1.90;;;;;;;;;;5034465;28;20185;-60
2021/08/09 03:05:05;;;;;;;3.38;1.75;;;;;;;;;;5041226;28;20448;-60
2021/08/09 03:07:30;;;;;;;2.22;1.40;;;;;;;;;;5037484;28;20040;-60
2021/08/09 03:09:56;;;;;;;3.92;1.67;;;;;;;;;;5044435;28;20021;-60
2021/08/09 03:12:21;;;;;;;1.95;1.48;;;;;;;;;;5042499;28;20648;-60
2021/08/09 03:14:50;;;;;;;3.60;2.08;;;;;;;;;;5042133;28;20025;-60
2021/08/09 03:17:15;;;;;;;4.20;1.83;;;;;;;;;;5048153;28;20035;-60
2021/08/09 03:19:41;;;;;;;2.95;1.98;;;;;;;;;;5038862;28;20029;-60
2021/08/09 03:22:06;;;;;;;3.05;2.03;;;;;;;;;;5037490;28;20524;-59
2021/08/09 03:24:32;;;;;;;3.70;1.35;;;;;;;;;;5038468;28;20025;-59
2021/08/09 03:26:58;;;;;;;1.95;1.40;;;;;;;;;;5046721;28;20464;-60
2021/08/09 03:29:25;;;;;;;2.72;1.50;;;;;;;;;;5037249;28;20025;-60
2021/08/09 03:31:51;;;;;;;3.08;1.58;;;;;;;;;;5044198;28;20021;-59
2021/08/09 03:34:17;;;;;;;2.50;1.60;;;;;;;;;;5043453;28;20028;-60
2021/08/09 03:36:45;;;;;;;2.75;1.88;;;;;;;;;;5038447;28;20412;-61
2021/08/09 03:39:11;;;;;;;2.20;1.70;;;;;;;;;;5038442;28;20283;-60
2021/08/09 03:41:36;;;;;;;3.42;1.55;;;;;;;;;;5043937;28;20517;-60
2021/08/09 03:44:02;;;;;;;2.05;1.40;;;;;;;;;;5034726;28;20124;-60
2021/08/09 03:46:28;;;;;;;3.85;1.98;;;;;;;;;;5037488;28;20112;-60
2021/08/09 03:48:54;;;;;;;4.55;1.52;;;;;;;;;;5047942;28;20072;-60
2021/08/09 03:51:19;;;;;;;3.13;1.55;;;;;;;;;;5043610;28;20500;-60
2021/08/09 03:53:45;;;;;;;2.80;1.80;;;;;;;;;;5038918;28;20116;-60
2021/08/09 03:56:10;;;;;;;4.15;1.95;;;;;;;;;;5037001;28;20124;-61
2021/08/09 03:58:36;;;;;;;5.18;1.85;;;;;;;;;;5040528;28;20093;-60
2021/08/09 04:01:01;;;;;;;3.03;1.58;;;;;;;;;;5043668;28;20075;-60
2021/08/09 04:03:26;;;;;;;2.05;1.50;;;;;;;;;;5039276;28;20039;-60
2021/08/09 04:05:52;;;;;;;4.43;1.52;;;;;;;;;;5039636;28;20095;-60
2021/08/09 04:08:17;;;;;;;5.32;2.30;;;;;;;;;;5038081;28;20103;-60
2021/08/09 04:10:42;;;;;;;3.38;1.52;;;;;;;;;;5042234;28;20140;-60
2021/08/09 04:13:08;;;;;;;5.28;1.60;;;;;;;;;;5037311;28;20048;-60
2021/08/09 04:15:33;;;;;;;2.65;1.60;;;;;;;;;;5041037;28;20022;-60
2021/08/09 04:17:59;;;;;;;4.00;1.60;;;;;;;;;;5038682;28;20029;-61
2021/08/09 04:20:24;;;;;;;4.50;1.60;;;;;;;;;;5040297;28;20025;-60
2021/08/09 04:22:49;;;;;;;4.32;1.95;;;;;;;;;;5032695;28;20032;-60
2021/08/09 04:25:15;;;;;;;4.75;1.70;;;;;;;;;;5039380;28;20510;-61
2021/08/09 04:27:40;;;;;;;4.97;2.00;;;;;;;;;;5042821;28;20083;-60
2021/08/09 04:30:06;;;;;;;2.90;1.67;;;;;;;;;;5038579;28;20036;-60
2021/08/09 04:32:42;;;;;;;3.90;1.80;;;;;;;;;;5039006;28;20496;-60
2021/08/09 04:35:10;;;;;;;3.08;1.67;;;;;;;;;;5025362;28;20137;-60
2021/08/09 04:37:36;;;;;;;3.67;1.77;;;;;;;;;;5036635;28;20056;-60
2021/08/09 04:40:03;;;;;;;4.43;1.70;;;;;;;;;;5040994;28;20048;-61
2021/08/09 04:42:28;;;;;;;4.60;2.35;;;;;;;;;;5049740;28;20030;-59
2021/08/09 04:44:53;;;;;;;3.38;1.55;;;;;;;;;;5043600;28;20036;-59
2021/08/09 04:47:19;;;;;;;4.90;2.05;;;;;;;;;;5043574;28;20021;-57
2021/08/09 04:49:44;;;;;;;2.85;1.80;;;;;;;;;;5042060;28;20074;-58
2021/08/09 04:52:10;;;;;;;6.18;2.40;;;;;;;;;;5040829;28;20819;-60
2021/08/09 04:54:36;;;;;;;9.65;3.22;;;;;;;;;;5039868;28;20461;-59
2021/08/09 04:57:01;;;;;;;8.63;3.97;;;;;;;;;;5043489;28;20045;-60
2021/08/09 04:59:27;;;;;;;7.80;2.00;;;;;;;;;;5040490;28;20147;-59
2021/08/09 05:01:52;;;;;;;4.35;1.73;;;;;;;;;;5036797;28;20028;-60
2021/08/09 05:04:17;;;;;;;4.47;2.03;;;;;;;;;;5038246;28;20468;-61
2021/08/09 05:06:43;;;;;;;4.38;2.20;;;;;;;;;;5034438;28;20546;-61
2021/08/09 05:09:08;;;;;;;2.70;1.60;;;;;;;;;;5043447;28;20032;-60
2021/08/09 05:11:34;;;;;;;5.63;1.75;;;;;;;;;;5040762;28;20026;-60
2021/08/09 05:13:59;;;;;;;2.95;1.63;;;;;;;;;;5043646;28;20419;-60
2021/08/09 05:16:25;;;;;;;2.67;1.95;;;;;;;;;;5042387;28;20082;-60
2021/08/09 05:18:52;;;;;;;3.85;1.88;;;;;;;;;;5042254;28;20026;-60
2021/08/09 05:21:17;;;;;;;3.90;1.58;;;;;;;;;;5048434;28;20320;-60
2021/08/09 05:23:45;;;;;;;3.45;1.90;;;;;;;;;;5043132;28;20036;-60
2021/08/09 05:26:11;;;;;;;4.97;2.20;;;;;;;;;;5040105;28;20033;-61
2021/08/09 05:28:36;;;;;;;2.17;1.80;;;;;;;;;;5036514;28;20561;-60
2021/08/09 05:31:03;;;;;;;4.90;1.60;;;;;;;;;;5036889;28;20029;-60
2021/08/09 05:33:29;;;;;;;4.85;1.90;;;;;;;;;;5044995;28;20415;-60
2021/08/09 05:35:55;;;;;;;3.95;1.90;;;;;;;;;;5038964;28;20017;-60
2021/08/09 05:38:20;;;;;;;2.90;1.60;;;;;;;;;;5041827;28;20389;-60
2021/08/09 05:40:46;;;;;;;2.63;1.60;;;;;;;;;;5044906;28;20048;-60
2021/08/09 05:43:11;;;;;;;5.88;2.50;;;;;;;;;;5046299;28;20030;-60
2021/08/09 05:45:37;;;;;;;6.35;3.00;;;;;;;;;;5044678;28;20374;-61
2021/08/09 05:48:02;;;;;;;2.97;2.20;;;;;;;;;;5044043;28;20495;-60
2021/08/09 05:50:28;;;;;;;3.55;2.13;;;;;;;;;;5044636;28;20036;-60
2021/08/09 05:52:53;;;;;;;4.43;2.17;;;;;;;;;;5043880;28;20033;-60
2021/08/09 05:55:21;;;;;;;3.20;2.40;;;;;;;;;;5040870;28;20428;-60
2021/08/09 05:57:46;;;;;;;5.70;2.60;;;;;;;;;;5041125;28;20479;-61
2021/08/09 06:00:12;;;;;;;3.70;2.60;;;;;;;;;;5038348;28;20041;-61
2021/08/09 06:02:44;;;;;;;4.00;2.47;;;;;;;;;;5035431;28;20083;-60
2021/08/09 06:05:10;;;;;;;3.13;2.65;;;;;;;;;;5041780;28;20101;-60
2021/08/09 06:07:37;;;;;;;3.88;2.40;;;;;;;;;;5046023;28;20040;-60
2021/08/09 06:10:03;;;;;;;4.47;2.75;;;;;;;;;;5033784;28;20060;-60
2021/08/09 06:12:28;;;;;;;6.10;2.65;;;;;;;;;;5042100;28;20055;-60
2021/08/09 06:14:53;;;;;;;4.97;2.50;;;;;;;;;;5037427;28;20036;-59
2021/08/09 06:17:19;;;;;;;4.55;2.80;;;;;;;;;;5035618;28;20384;-60
2021/08/09 06:19:44;;;;;;;3.45;2.60;;;;;;;;;;5034810;28;20082;-60
2021/08/09 06:22:10;;;;;;;4.55;2.80;;;;;;;;;;5035802;28;20033;-60
2021/08/09 06:24:35;;;;;;;3.50;2.97;;;;;;;;;;5037469;28;20540;-60
2021/08/09 06:27:00;;;;;;;5.43;3.03;;;;;;;;;;5038068;28;20266;-60
2021/08/09 06:29:26;;;;;;;2.97;2.67;;;;;;;;;;5041629;28;20021;-60
2021/08/09 06:31:51;;;;;;;3.53;2.72;;;;;;;;;;5034589;28;20124;-60
2021/08/09 06:34:17;;;;;;;4.30;2.80;;;;;;;;;;5037597;28;20029;-60
2021/08/09 06:36:42;;;;;;;5.95;2.70;;;;;;;;;;5034581;28;20059;-60
2021/08/09 06:39:10;;;;;;;5.50;2.50;;;;;;;;;;5033455;28;20029;-60
2021/08/09 06:41:35;;;;;;;3.85;2.30;;;;;;;;;;5038167;28;20467;-60
2021/08/09 06:44:01;;;;;;;3.75;2.38;;;;;;;;;;5038999;28;20033;-60
2021/08/09 06:46:26;;;;;;;5.22;2.40;;;;;;;;;;5033956;28;20036;-60
2021/08/09 06:48:52;;;;;;;4.55;2.42;;;;;;;;;;5035692;28;20063;-61
2021/08/09 06:51:17;;;;;;;4.50;1.92;;;;;;;;;;5036785;28;20057;-60
2021/08/09 06:53:43;;;;;;;2.97;1.95;;;;;;;;;;5038677;28;20404;-60
2021/08/09 06:56:13;;;;;;;3.15;2.17;;;;;;;;;;5041579;28;20108;-60
2021/08/09 06:58:38;;;;;;;2.97;2.20;;;;;;;;;;5038488;28;20040;-61
2021/08/09 07:01:03;;;;;;;2.53;2.08;;;;;;;;;;5029648;28;20538;-60
2021/08/09 07:03:29;;;;;;;4.55;2.35;;;;;;;;;;5038160;28;20029;-60
2021/08/09 07:05:54;;;;;;;3.60;2.40;;;;;;;;;;5038989;28;20439;-60
2021/08/09 07:08:20;;;;;;;2.78;2.13;;;;;;;;;;5038336;28;20067;-60
2021/08/09 07:10:47;;;;;;;4.85;2.33;;;;;;;;;;5039360;28;20033;-61
2021/08/09 07:13:12;;;;;;;5.63;2.47;;;;;;;;;;5034138;28;20123;-61
2021/08/09 07:15:38;;;;;;;4.35;2.15;;;;;;;;;;5036538;28;20113;-61
2021/08/09 07:18:03;;;;;;;5.40;2.00;;;;;;;;;;5034942;28;20052;-60
2021/08/09 07:20:29;;;;;;;4.03;2.05;;;;;;;;;;5034508;28;20029;-61
2021/08/09 07:22:54;;;;;;;4.50;2.10;;;;;;;;;;5038901;28;20543;-60
2021/08/09 07:25:20;;;;;;;3.45;2.33;;;;;;;;;;5033803;28;20025;-61
2021/08/09 07:27:45;;;;;;;3.22;1.90;;;;;;;;;;5036698;28;20025;-60
2021/08/09 07:30:13;;;;;;;2.33;1.60;;;;;;;;;;5039305;28;20067;-61
2021/08/09 07:32:39;;;;;;;3.10;1.70;;;;;;;;;;5037565;28;20028;-60
2021/08/09 07:35:06;;;;;;;2.65;1.50;;;;;;;;;;5036903;28;20041;-61
2021/08/09 07:37:31;;;;;;;2.72;1.45;;;;;;;;;;5044096;28;20037;-61
2021/08/09 07:39:57;;;;;;;6.25;1.60;;;;;;;;;;5039712;28;20059;-61
2021/08/09 07:42:24;;;;;;;2.70;1.52;;;;;;;;;;5037037;28;20041;-61
2021/08/09 07:44:50;;;;;;;2.28;1.40;;;;;;;;;;5041747;28;20036;-61
2021/08/09 07:47:16;;;;;;;2.38;1.40;;;;;;;;;;5036704;28;20407;-61
2021/08/09 07:49:42;;;;;;;2.55;1.30;;;;;;;;;;5042937;28;20024;-61
2021/08/09 07:52:08;;;;;;;2.20;1.30;;;;;;;;;;5034006;28;20519;-60
2021/08/09 07:54:33;;;;;;;2.67;1.55;;;;;;;;;;5042087;28;20506;-61
2021/08/09 07:57:03;;;;;;;2.75;1.58;;;;;;;;;;5041231;28;20059;-61
2021/08/09 07:59:28;;;;;;;2.97;1.80;;;;;;;;;;5036657;28;20029;-61
2021/08/09 08:01:54;;;;;;;1.90;1.40;;;;;;;;;;5039264;28;20040;-61
2021/08/09 08:04:20;;;;;;;4.85;2.85;;;;;;;;;;5037832;28;20025;-60
2021/08/09 08:06:46;;;;;;;1.60;1.30;;;;;;;;;;5037189;28;20053;-60
2021/08/09 08:09:12;;;;;;;3.35;2.17;;;;;;;;;;5042076;28;20040;-61
2021/08/09 08:11:37;;;;;;;2.67;1.33;;;;;;;;;;5044063;28;20028;-61
2021/08/09 08:14:03;;;;;;;2.83;1.40;;;;;;;;;;5043274;28;20033;-60
2021/08/09 08:16:29;;;;;;;5.07;1.63;;;;;;;;;;5042613;28;20121;-61
2021/08/09 08:18:54;;;;;;;2.53;1.48;;;;;;;;;;5036167;28;20025;-60
2021/08/09 08:21:20;;;;;;;6.03;1.55;;;;;;;;;;5039322;28;20064;-61
2021/08/09 08:23:45;;;;;;;3.55;1.20;;;;;;;;;;5040210;28;20048;-61
2021/08/09 08:26:11;;;;;;;2.92;1.27;;;;;;;;;;5037828;28;20040;-61
2021/08/09 08:28:36;;;;;;;2.58;1.48;;;;;;;;;;5037332;28;20102;-61
2021/08/09 08:31:03;;;;;;;3.38;1.30;;;;;;;;;;5039791;28;20028;-61
2021/08/09 08:33:28;;;;;;;3.70;1.25;;;;;;;;;;5041374;28;20040;-61
2021/08/09 08:35:54;;;;;;;1.38;1.27;;;;;;;;;;5036851;28;20029;-61
2021/08/09 08:38:19;;;;;;;2.75;1.50;;;;;;;;;;5036470;28;20029;-61
2021/08/09 08:40:51;;;;;;;3.95;1.50;;;;;;;;;;5038380;28;20506;-61
2021/08/09 08:43:27;;;;;;;1.90;1.55;;;;;;;;;;5036107;28;20051;-61
2021/08/09 08:45:57;;;;;;;2.08;1.60;;;;;;;;;;5037171;28;20074;-61
2021/08/09 08:48:27;;;;;;;5.88;1.70;;;;;;;;;;5044395;28;20028;-61
2021/08/09 08:50:53;;;;;;;4.30;1.40;;;;;;;;;;5037015;28;20142;-61
2021/08/09 08:53:19;;;;;;;2.33;1.00;;;;;;;;;;5041568;28;20017;-61
2021/08/09 08:55:45;;;;;;;1.65;1.27;;;;;;;;;;5046965;28;20032;-61
2021/08/09 08:58:10;;;;;;;4.93;1.60;;;;;;;;;;5048179;28;20025;-61
2021/08/09 09:00:41;;;;;;;2.85;1.33;;;;;;;;;;5043641;28;20074;-62
2021/08/09 09:03:17;;;;;;;3.15;1.45;;;;;;;;;;5040590;28;20079;-61
2021/08/09 09:05:58;;;;;;;2.58;1.40;;;;;;;;;;5046223;28;20136;-61
2021/08/09 09:08:43;;;;;;;3.72;1.40;;;;;;;;;;5045747;28;20016;-61
2021/08/09 09:11:11;;;;;;;3.83;1.40;;;;;;;;;;5046885;28;20052;-61
2021/08/09 09:13:53;;;;;;;3.45;1.35;;;;;;;;;;5037339;28;20452;-62
2021/08/09 09:16:18;;;;;;;3.05;1.55;;;;;;;;;;5040115;28;20372;-61
2021/08/09 09:18:59;;;;;;;2.78;1.23;;;;;;;;;;5046056;28;20025;-62
2021/08/09 09:21:26;;;;;;;2.42;1.40;;;;;;;;;;5039291;28;20035;-62
2021/08/09 09:23:54;;;;;;;1.92;1.10;;;;;;;;;;5047889;28;20186;-61
2021/08/09 09:26:22;;;;;;;3.42;1.40;;;;;;;;;;5048728;28;20127;-62
2021/08/09 09:28:48;;;;;;;2.00;1.25;;;;;;;;;;5038125;28;20032;-62
2021/08/09 09:31:26;;;;;;;2.88;1.58;;;;;;;;;;5041673;28;20036;-62
2021/08/09 09:33:51;;;;;;;4.80;1.40;;;;;;;;;;5037994;28;20535;-61
2021/08/09 09:36:20;;;;;;;2.97;1.77;;;;;;;;;;5045072;28;20034;-62
2021/08/09 09:38:45;;;;;;;2.05;1.40;;;;;;;;;;5047277;28;20071;-61
2021/08/09 09:41:11;;;;;;;3.50;1.40;;;;;;;;;;5033843;28;20468;-62
2021/08/09 09:43:42;;;;;;;2.13;1.40;;;;;;;;;;5042084;28;20506;-62
2021/08/09 09:46:20;;;;;;;4.63;1.38;;;;;;;;;;5039751;28;20139;-62
2021/08/09 09:48:45;;;;;;;3.55;1.45;;;;;;;;;;5036377;28;20072;-62
2021/08/09 09:51:12;;;;;;;2.80;1.40;;;;;;;;;;5033287;28;20056;-62
2021/08/09 09:53:38;;;;;;;3.53;1.42;;;;;;;;;;5043388;28;20029;-63
2021/08/09 09:56:04;;;;;;;1.70;1.15;;;;;;;;;;5034744;28;20034;-62
2021/08/09 09:58:30;;;;;;;2.20;1.30;;;;;;;;;;5039772;28;20025;-62
2021/08/09 10:00:59;;;;;;;1.98;1.00;;;;;;;;;;5041332;28;20032;-62
2021/08/09 10:03:24;;;;;;;3.35;1.35;;;;;;;;;;5037711;28;20049;-62
2021/08/09 10:05:50;;;;;;;2.88;1.48;;;;;;;;;;5039680;28;20063;-62
2021/08/09 10:08:17;;;;;;;1.77;1.20;;;;;;;;;;5039149;28;20025;-62
2021/08/09 10:10:52;;;;;;;2.55;1.20;;;;;;;;;;5044202;28;20056;-63
2021/08/09 10:13:20;;;;;;;3.53;1.35;;;;;;;;;;5035538;28;20112;-62
2021/08/09 10:15:59;;;;;;;2.20;1.42;;;;;;;;;;5038645;28;20025;-63
2021/08/09 10:18:27;;;;;;;4.47;1.30;;;;;;;;;;5032080;28;20033;-63
2021/08/09 10:20:58;;;;;;;1.40;1.30;;;;;;;;;;5037154;28;20544;-62
2021/08/09 10:23:41;;;;;;;2.85;1.30;;;;;;;;;;5037138;28;20038;-63
2021/08/09 10:26:32;;;;;;;5.00;1.33;;;;;;;;;;5038888;28;20025;-62
2021/08/09 10:29:09;;;;;;;3.50;1.48;;;;;;;;;;5043597;28;20040;-63
2021/08/09 10:31:36;;;;;;;2.10;1.35;;;;;;;;;;5038457;28;20075;-63
2021/08/09 10:34:04;;;;;;;1.90;1.20;;;;;;;;;;5038083;28;20035;-64
2021/08/09 10:37:13;;;;;;;2.25;1.35;;;;;;;;;;5040342;28;20028;-62
2021/08/09 10:39:47;;;;;;;2.13;1.40;;;;;;;;;;5036247;28;20034;-63
2021/08/09 10:42:31;;;;;;;4.20;1.63;;;;;;;;;;5043293;28;20037;-62
2021/08/09 10:44:58;;;;;;;3.08;1.40;;;;;;;;;;5040695;28;20043;-62
2021/08/09 10:47:45;;;;;;;2.70;1.23;;;;;;;;;;5035279;28;20378;-64
2021/08/09 10:50:26;;;;;;;2.28;1.40;;;;;;;;;;5037430;28;20037;-64
2021/08/09 10:52:53;;;;;;;2.50;1.35;;;;;;;;;;5047495;28;20031;-63
2021/08/09 10:55:31;;;;;;;2.80;1.35;;;;;;;;;;5037345;28;20033;-63
2021/08/09 10:57:57;;;;;;;2.05;1.25;;;;;;;;;;5038286;28;20327;-64
2021/08/09 11:00:38;;;;;;;2.10;1.35;;;;;;;;;;5042461;28;20028;-63
2021/08/09 11:03:09;;;;;;;4.38;1.55;;;;;;;;;;5043652;28;20135;-63
2021/08/09 11:05:35;;;;;;;2.65;1.30;;;;;;;;;;5048548;28;20093;-63
2021/08/09 11:08:15;;;;;;;2.95;1.30;;;;;;;;;;5036973;28;20720;-63
2021/08/09 11:10:56;;;;;;;1.65;1.38;;;;;;;;;;5036041;28;20087;-62
2021/08/09 11:13:22;;;;;;;3.08;1.30;;;;;;;;;;5035863;28;20060;-63
2021/08/09 11:15:56;;;;;;;3.22;1.50;;;;;;;;;;5042959;28;20043;-63
2021/08/09 11:18:21;;;;;;;3.22;1.25;;;;;;;;;;5037362;28;20033;-63
2021/08/09 11:20:47;;;;;;;2.47;1.30;;;;;;;;;;5044904;28;20033;-61
2021/08/09 11:23:15;;;;;;;2.22;1.17;;;;;;;;;;5037809;28;20030;-64
2021/08/09 11:25:48;;;;;;;1.50;1.20;;;;;;;;;;5040595;28;20722;-61
2021/08/09 11:28:18;;;;;;;4.03;1.50;;;;;;;;;;5041615;28;20032;-61
2021/08/09 11:30:47;;;;;;;2.75;1.40;;;;;;;;;;5040081;28;20491;-62
2021/08/09 11:33:25;;;;;;;3.63;1.45;;;;;;;;;;5038561;28;20631;-62
2021/08/09 11:35:51;;;;;;;2.45;1.60;;;;;;;;;;5044453;28;20075;-62
2021/08/09 11:38:17;;;;;;;2.95;1.20;;;;;;;;;;5033637;28;20029;-63
2021/08/09 11:40:46;;;;;;;4.13;1.40;;;;;;;;;;5042904;28;20029;-63
2021/08/09 11:43:34;;;;;;;1.67;1.35;;;;;;;;;;5045614;28;20035;-63
2021/08/09 11:46:06;;;;;;;3.80;1.58;;;;;;;;;;5041322;28;20060;-63
2021/08/09 11:48:37;;;;;;;2.40;1.40;;;;;;;;;;5038518;28;20479;-64
2021/08/09 11:51:05;;;;;;;4.35;1.33;;;;;;;;;;5043931;28;20076;-61
2021/08/09 11:53:31;;;;;;;2.03;1.20;;;;;;;;;;5037091;28;20028;-64
2021/08/09 11:56:16;;;;;;;2.28;1.40;;;;;;;;;;5038287;28;20037;-62
2021/08/09 11:58:42;;;;;;;2.35;1.25;;;;;;;;;;5035469;28;20029;-62
2021/08/09 12:01:08;;;;;;;2.05;1.40;;;;;;;;;;5034357;28;20035;-62
2021/08/09 12:03:34;;;;;;;2.55;1.27;;;;;;;;;;5045576;28;20100;-62
2021/08/09 12:06:23;;;;;;;2.20;1.30;;;;;;;;;;5032927;28;20021;-62
2021/08/09 12:08:49;;;;;;;;;;;;;;;;;;5043689;28;20040;-62
2021/08/09 12:11:14;;;;;;;1.92;1.40;;;;;;;;;;5037740;28;20012;-61
2021/08/09 12:13:40;;;;;;;4.90;1.58;;;;;;;;;;5034272;28;20029;-62
2021/08/09 12:16:11;;;;;;;2.65;1.45;;;;;;;;;;5037375;28;20021;-62
2021/08/09 12:18:38;;;;;;;3.63;1.40;;;;;;;;;;5034954;28;20166;-62
2021/08/09 12:21:35;;;;;;;3.22;1.38;;;;;;;;;;5040569;28;20564;-62
2021/08/09 12:24:01;;;;;;;3.22;1.58;;;;;;;;;;5040147;28;20037;-62
2021/08/09 12:26:33;;;;;;;3.92;1.30;;;;;;;;;;5043725;28;20021;-62
2021/08/09 12:29:01;;;;;;;2.88;1.27;;;;;;;;;;5039886;28;20025;-63
2021/08/09 12:31:39;;;;;;;4.63;1.77;;;;;;;;;;5036708;28;20261;-62
2021/08/09 12:34:08;;;;;;;1.95;1.40;;;;;;;;;;5037757;28;20136;-62
2021/08/09 12:36:33;;;;;;;1.30;1.13;;;;;;;;;;5047432;28;20112;-62
2021/08/09 12:38:59;;;;;;;4.13;1.60;;;;;;;;;;5035489;28;20623;-62
2021/08/09 12:41:28;;;;;;;3.42;1.52;;;;;;;;;;5040368;28;20276;-62
2021/08/09 12:43:55;;;;;;;3.08;1.80;;;;;;;;;;5032662;28;20033;-62
2021/08/09 12:46:21;;;;;;;2.63;1.40;;;;;;;;;;5032285;28;20032;-62
2021/08/09 12:48:51;;;;;;;3.25;1.40;;;;;;;;;;5034166;28;20033;-62
2021/08/09 12:51:17;;;;;;;3.25;1.58;;;;;;;;;;5044499;28;20126;-62
2021/08/09 12:53:43;;;;;;;2.38;1.23;;;;;;;;;;5041973;28;20411;-62
2021/08/09 12:56:08;;;;;;;2.60;1.50;;;;;;;;;;5038910;28;20032;-63
2021/08/09 12:58:35;;;;;;;7.13;1.70;;;;;;;;;;5043228;28;20100;-63
2021/08/09 13:01:01;;;;;;;4.32;1.40;;;;;;;;;;5039176;28;20467;-63
2021/08/09 13:03:28;;;;;;;3.38;1.50;;;;;;;;;;5039424;28;20051;-62
2021/08/09 13:05:53;;;;;;;3.20;1.63;;;;;;;;;;5039671;28;20029;-62
2021/08/09 13:08:18;;;;;;;2.30;1.45;;;;;;;;;;5039184;28;20122;-63
2021/08/09 13:10:44;;;;;;;2.30;1.45;;;;;;;;;;5038435;28;20476;-63
2021/08/09 13:13:09;;;;;;;5.03;1.55;;;;;;;;;;5035725;28;20025;-62
2021/08/09 13:15:38;;;;;;;2.85;1.50;;;;;;;;;;5035897;28;20028;-62
2021/08/09 13:18:03;;;;;;;3.83;1.67;;;;;;;;;;5036737;28;20076;-63
2021/08/09 13:20:29;;;;;;;3.88;1.77;;;;;;;;;;5039921;28;20027;-62
2021/08/09 13:22:56;;;;;;;3.33;1.33;;;;;;;;;;5038294;28;20039;-62
2021/08/09 13:25:21;;;;;;;2.85;1.63;;;;;;;;;;5038804;28;20043;-62
2021/08/09 13:27:47;;;;;;;3.67;1.75;;;;;;;;;;5026743;28;20398;-63
2021/08/09 13:30:12;;;;;;;2.35;1.55;;;;;;;;;;5031059;28;20035;-62
2021/08/09 13:32:38;;;;;;;2.58;1.60;;;;;;;;;;5040713;28;21256;-62
2021/08/09 13:35:03;;;;;;;2.90;1.67;;;;;;;;;;5042134;28;20522;-63
2021/08/09 13:37:30;;;;;;;2.63;1.50;;;;;;;;;;5045176;28;20032;-63
2021/08/09 13:39:58;;;;;;;3.50;1.60;;;;;;;;;;5045010;28;20029;-63
2021/08/09 13:42:23;;;;;;;3.45;1.75;;;;;;;;;;5041250;28;20034;-63
2021/08/09 13:44:49;;;;;;;2.40;1.40;;;;;;;;;;5045582;28;20039;-64
2021/08/09 13:47:15;;;;;;;4.25;1.65;;;;;;;;;;5048973;28;20032;-63
2021/08/09 13:49:41;;;;;;;4.07;1.88;;;;;;;;;;5045076;28;20086;-63
2021/08/09 13:52:06;;;;;;;2.85;1.45;;;;;;;;;;5043841;28;20041;-63
2021/08/09 13:54:32;;;;;;;2.70;1.60;;;;;;;;;;5043408;28;20021;-63
2021/08/09 13:56:57;;;;;;;3.33;1.60;;;;;;;;;;5039989;28;20099;-62
2021/08/09 13:59:23;;;;;;;2.35;1.50;;;;;;;;;;5041560;28;20409;-63
2021/08/09 14:01:48;;;;;;;2.50;1.70;;;;;;;;;;5037040;28;20124;-63
2021/08/09 14:04:14;;;;;;;1.83;1.48;;;;;;;;;;5043278;28;20044;-63
2021/08/09 14:06:39;;;;;;;3.45;1.50;;;;;;;;;;5038893;28;20036;-64
2021/08/09 14:09:04;;;;;;;3.90;1.70;;;;;;;;;;5034561;28;20481;-64
2021/08/09 14:11:30;;;;;;;3.13;1.70;;;;;;;;;;5036902;28;20024;-64
2021/08/09 14:13:55;;;;;;;3.45;1.60;;;;;;;;;;5037682;28;20035;-63
2021/08/09 14:16:21;;;;;;;3.17;1.75;;;;;;;;;;5038197;28;20068;-64
2021/08/09 14:18:46;;;;;;;3.47;1.60;;;;;;;;;;5042948;28;20040;-64
2021/08/09 14:21:12;;;;;;;2.67;1.60;;;;;;;;;;5042068;28;20033;-63
2021/08/09 14:23:37;;;;;;;3.58;1.75;;;;;;;;;;5042269;28;20483;-63
2021/08/09 14:26:03;;;;;;;4.05;1.77;;;;;;;;;;5042075;28;20056;-62
2021/08/09 14:28:29;;;;;;;2.95;1.85;;;;;;;;;;5035400;28;20078;-63
2021/08/09 14:30:54;;;;;;;3.33;1.65;;;;;;;;;;5035517;28;20096;-65
2021/08/09 14:33:20;;;;;;;2.78;1.83;;;;;;;;;;5035834;28;20408;-63
2021/08/09 14:35:47;;;;;;;1.90;1.63;;;;;;;;;;5038669;28;20149;-64
2021/08/09 14:38:13;;;;;;;2.78;1.80;;;;;;;;;;5043123;28;20079;-62
2021/08/09 14:40:39;;;;;;;2.50;1.63;;;;;;;;;;5040593;28;20427;-60
2021/08/09 14:43:05;;;;;;;3.88;2.17;;;;;;;;;;5042173;28;20029;-60
2021/08/09 14:45:32;;;;;;;3.67;2.25;;;;;;;;;;5041873;28;20021;-64
2021/08/09 14:47:57;;;;;;;3.83;1.85;;;;;;;;;;5040304;28;20025;-61